createdAt,value
2022-12-18T00:01:24.068Z,47.1
2022-12-18T00:03:25.230Z,35
2022-12-18T00:11:29.538Z,31.2
2022-12-18T00:13:34.045Z,59.9
2022-12-18T00:15:35.133Z,57.6
2022-12-18T00:26:12.031Z,88.1
2022-12-18T00:28:13.135Z,122.5
2022-12-18T00:30:14.222Z,52.1
2022-12-18T00:32:15.318Z,69.4
2022-12-18T00:34:16.417Z,107
2022-12-18T00:36:17.496Z,82.5
2022-12-18T00:38:18.560Z,58.1
2022-12-18T00:42:24.174Z,81.9
2022-12-18T00:44:25.273Z,85.3
2022-12-18T00:46:26.421Z,100.7
2022-12-18T00:48:27.435Z,54.5
2022-12-18T00:50:28.523Z,84.6
2022-12-18T00:52:29.583Z,55.3
2022-12-18T00:54:34.074Z,55.7
2022-12-18T00:56:35.179Z,48.1
2022-12-18T00:58:36.208Z,43
2022-12-18T01:00:37.320Z,69.1
2022-12-18T01:02:38.480Z,36
2022-12-18T01:04:39.422Z,85.2
2022-12-18T01:06:40.454Z,75.1
2022-12-18T01:08:44.945Z,69.3
2022-12-18T01:10:45.983Z,72.7
2022-12-18T01:12:47.025Z,69.5
2022-12-18T01:13:49.308Z,52.6
2022-12-18T01:15:50.340Z,32.3
2022-12-18T01:17:51.416Z,52.1
2022-12-18T01:19:52.483Z,45.7
2022-12-18T01:21:56.995Z,52.1
2022-12-18T01:23:58.066Z,33.6
2022-12-18T01:25:59.063Z,34.9
2022-12-18T01:28:00.128Z,35.1
2022-12-18T01:30:01.175Z,37
2022-12-18T01:32:02.326Z,31.5
2022-12-18T01:34:03.292Z,44.5
2022-12-18T01:38:08.800Z,34
2022-12-18T01:40:09.901Z,42.7
2022-12-18T01:42:10.943Z,29.1
2022-12-18T01:46:13.134Z,17.1
2022-12-18T01:52:19.624Z,59.4
2022-12-18T01:54:20.650Z,50
2022-12-18T01:56:21.718Z,38.2
2022-12-18T02:04:29.332Z,82.3
2022-12-18T02:06:30.362Z,46.5
2022-12-18T02:08:31.382Z,69.9
2022-12-18T02:09:33.607Z,67.1
2022-12-18T02:11:34.659Z,29.8
2022-12-18T02:13:36.006Z,33.4
2022-12-18T02:15:36.728Z,31.7
2022-12-18T02:17:41.196Z,52
2022-12-18T02:19:42.406Z,42.5
2022-12-18T02:21:43.251Z,17
2022-12-18T02:23:44.284Z,34.6
2022-12-18T02:25:45.330Z,29.9
2022-12-18T02:27:46.375Z,47.4
2022-12-18T02:31:51.827Z,54.2
2022-12-18T02:33:52.873Z,26.1
2022-12-18T02:35:53.908Z,32.4
2022-12-18T02:37:54.935Z,46
2022-12-18T02:39:55.983Z,14.7
2022-12-18T02:41:56.950Z,34.1
2022-12-18T02:43:57.960Z,70.4
2022-12-18T02:46:02.588Z,32.7
2022-12-18T02:48:03.425Z,28.5
2022-12-18T02:50:04.427Z,18.8
2022-12-18T02:52:05.410Z,42.9
2022-12-18T02:54:06.421Z,23.1
2022-12-18T02:56:07.415Z,34.7
2022-12-18T02:58:08.423Z,28.6
2022-12-18T03:00:12.841Z,35.7
2022-12-18T03:02:13.939Z,24.8
2022-12-18T03:04:14.841Z,15.7
2022-12-18T03:11:19.989Z,31.1
2022-12-18T03:13:24.420Z,41.2
2022-12-18T03:15:25.385Z,16.6
2022-12-18T03:17:26.366Z,38.2
2022-12-18T03:19:27.350Z,15.8
2022-12-18T03:21:28.332Z,31.7
2022-12-18T03:23:29.325Z,28.5
2022-12-18T03:25:30.293Z,5.9
2022-12-18T03:27:34.675Z,28.5
2022-12-18T03:29:35.664Z,24.1
2022-12-18T03:31:36.616Z,24.3
2022-12-18T03:33:38.104Z,35
2022-12-18T03:35:38.620Z,20.5
2022-12-18T03:37:39.560Z,23
2022-12-18T03:39:40.544Z,18.9
2022-12-18T03:41:44.940Z,29.1
2022-12-18T03:43:45.930Z,43.8
2022-12-18T03:45:46.988Z,23.8
2022-12-18T03:47:47.878Z,18.1
2022-12-18T03:49:48.856Z,30.6
2022-12-18T03:51:49.848Z,22
2022-12-18T03:53:50.840Z,32.6
2022-12-18T03:55:55.236Z,20.4
2022-12-18T03:57:56.247Z,20.2
2022-12-18T03:59:57.230Z,14.9
2022-12-18T04:02:21.746Z,28.6
2022-12-18T04:04:22.673Z,24.6
2022-12-18T04:06:23.626Z,18
2022-12-18T04:08:28.044Z,29.3
2022-12-18T04:10:29.049Z,36.7
2022-12-18T04:12:30.058Z,24
2022-12-18T04:14:31.022Z,11.4
2022-12-18T04:16:32.006Z,18.9
2022-12-18T04:18:32.983Z,19.8
2022-12-18T04:20:33.980Z,10.9
2022-12-18T04:22:38.499Z,21.9
2022-12-18T04:24:39.378Z,19.2
2022-12-18T04:26:40.341Z,7.8
2022-12-18T04:28:41.314Z,32.8
2022-12-18T04:32:47.744Z,14
2022-12-18T04:34:44.275Z,23.5
2022-12-18T04:36:48.671Z,19.8
2022-12-18T04:38:49.664Z,15.3
2022-12-18T04:40:50.687Z,30.7
2022-12-18T04:42:51.722Z,17.2
2022-12-18T04:44:52.646Z,23.3
2022-12-18T04:46:53.656Z,25.2
2022-12-18T04:48:54.641Z,18.9
2022-12-18T04:50:59.086Z,23.4
2022-12-18T04:53:00.076Z,19.9
2022-12-18T04:55:01.068Z,21
2022-12-18T04:56:03.290Z,20.7
2022-12-18T04:58:04.272Z,22.6
2022-12-18T05:00:05.312Z,11.1
2022-12-18T05:02:06.346Z,8.9
2022-12-18T05:04:10.726Z,20
2022-12-18T05:06:11.681Z,39.2
2022-12-18T05:08:12.682Z,17.1
2022-12-18T05:10:13.696Z,17.8
2022-12-18T05:14:15.687Z,14.3
2022-12-18T05:16:16.741Z,15.1
2022-12-18T05:18:21.095Z,6.9
2022-12-18T05:20:22.112Z,18.8
2022-12-18T05:22:23.108Z,15.9
2022-12-18T05:24:24.120Z,5.8
2022-12-18T05:26:25.125Z,18.5
2022-12-18T05:28:26.162Z,30
2022-12-18T05:32:31.584Z,18.1
2022-12-18T05:34:32.619Z,41.5
2022-12-18T05:36:33.588Z,6.9
2022-12-18T05:40:35.562Z,11.6
2022-12-18T05:42:36.534Z,10.7
2022-12-18T05:44:37.508Z,13.6
2022-12-18T05:46:41.976Z,23.9
2022-12-18T05:48:42.878Z,9.9
2022-12-18T05:50:43.822Z,9.5
2022-12-18T05:53:46.973Z,9.7
2022-12-18T05:55:48.141Z,29
2022-12-18T06:14:03.270Z,9.5
2022-12-18T06:16:04.281Z,17.1
2022-12-18T06:18:05.138Z,13.8
2022-12-18T06:20:06.085Z,7.2
2022-12-18T06:22:07.018Z,20.5
2022-12-18T06:28:13.285Z,12.1
2022-12-18T06:30:14.231Z,12.4
2022-12-18T06:32:15.206Z,11.8
2022-12-18T06:34:16.176Z,23.6
2022-12-18T06:36:17.653Z,15.5
2022-12-18T06:38:18.579Z,14.8
2022-12-18T06:40:19.556Z,17
2022-12-18T06:42:23.936Z,12.5
2022-12-18T06:44:24.948Z,10.6
2022-12-18T06:46:25.895Z,10.1
2022-12-18T06:51:30.061Z,16.1
2022-12-18T06:53:31.014Z,15.4
2022-12-18T06:59:37.370Z,6.8
2022-12-18T07:01:38.568Z,13.4
2022-12-18T07:03:39.828Z,17.9
2022-12-18T07:05:40.256Z,11.5
2022-12-18T07:07:41.214Z,28.2
2022-12-18T07:09:45.639Z,22.9
2022-12-18T07:11:46.617Z,21.3
2022-12-18T07:13:47.579Z,18.7
2022-12-18T07:15:48.531Z,16.7
2022-12-18T07:17:49.517Z,8
2022-12-18T07:19:50.479Z,19.4
2022-12-18T07:21:51.453Z,16.3
2022-12-18T07:23:55.861Z,21.4
2022-12-18T07:25:56.853Z,16.3
2022-12-18T07:27:57.978Z,17.4
2022-12-18T07:31:59.773Z,24.8
2022-12-18T07:36:01.648Z,18.2
2022-12-18T07:38:06.109Z,20.3
2022-12-18T07:44:30.875Z,13.4
2022-12-18T07:46:31.854Z,22
2022-12-18T07:48:32.805Z,32.7
2022-12-18T07:50:37.196Z,17.1
2022-12-18T07:52:38.143Z,9.5
2022-12-18T08:00:41.987Z,23.1
2022-12-18T08:08:49.277Z,23.2
2022-12-18T08:14:52.184Z,19.1
2022-12-18T08:16:53.237Z,18.8
2022-12-18T08:18:57.619Z,29
2022-12-18T08:20:58.605Z,20.6
2022-12-18T08:22:59.567Z,16.2
2022-12-18T08:25:00.569Z,28.2
2022-12-18T08:27:29.320Z,13.8
2022-12-18T08:29:02.774Z,18.8
2022-12-18T08:31:03.661Z,37.8
2022-12-18T08:33:08.020Z,16.9
2022-12-18T08:35:09.050Z,50.9
2022-12-18T08:37:10.082Z,30.5
2022-12-18T08:38:12.284Z,20.9
2022-12-18T08:40:13.297Z,37.5
2022-12-18T08:42:14.337Z,40.2
2022-12-18T08:48:22.329Z,34.8
2022-12-18T08:50:21.939Z,16.5
2022-12-18T08:52:22.962Z,27.3
2022-12-18T08:54:24.008Z,35.7
2022-12-18T08:56:25.026Z,21.7
2022-12-18T08:58:26.085Z,18.3
2022-12-18T09:00:30.583Z,48.9
2022-12-18T09:02:31.894Z,44.8
2022-12-18T09:04:32.694Z,18.3
2022-12-18T09:06:33.787Z,17
2022-12-18T09:08:34.821Z,69.7
2022-12-18T09:10:41.730Z,45.2
2022-12-18T09:12:36.960Z,53
2022-12-18T09:16:42.574Z,15.2
2022-12-18T09:18:43.784Z,23.4
2022-12-18T09:20:44.696Z,34.4
2022-12-18T09:22:45.738Z,20.5
2022-12-18T09:28:52.404Z,60.9
2022-12-18T09:33:56.885Z,40.5
2022-12-18T09:35:57.967Z,51.2
2022-12-18T09:37:59.097Z,35.9
2022-12-18T09:42:04.763Z,55.4
2022-12-18T09:44:05.909Z,36.3
2022-12-18T09:46:07.083Z,44.6
2022-12-18T09:54:13.101Z,76.2
2022-12-18T09:56:17.672Z,75.1
2022-12-18T09:58:18.818Z,59.3
2022-12-18T10:00:19.970Z,48.6
2022-12-18T10:02:21.183Z,32.6
2022-12-18T10:04:22.361Z,39.1
2022-12-18T10:06:23.429Z,73.4
2022-12-18T10:08:24.589Z,57.4
2022-12-18T10:10:29.180Z,62.8
2022-12-18T10:12:30.357Z,37.5
2022-12-18T10:14:31.509Z,65.4
2022-12-18T10:16:32.723Z,71.1
2022-12-18T10:18:33.895Z,33.8
2022-12-18T10:20:35.075Z,69.1
2022-12-18T10:22:36.258Z,46.1
2022-12-18T10:24:40.852Z,70.8
2022-12-18T10:26:42.040Z,33.7
2022-12-18T10:28:43.657Z,54.4
2022-12-18T10:29:45.523Z,28.7
2022-12-18T10:31:46.711Z,67
2022-12-18T10:33:47.899Z,53.5
2022-12-18T10:35:49.140Z,48.5
2022-12-18T10:37:53.729Z,35.6
2022-12-18T10:39:54.909Z,21.1
2022-12-18T10:41:56.128Z,56.5
2022-12-18T10:43:57.307Z,54.8
2022-12-18T10:45:58.583Z,34.8
2022-12-18T10:47:59.733Z,36.5
2022-12-18T10:50:00.944Z,49.4
2022-12-18T10:52:05.556Z,33.1
2022-12-18T10:54:06.768Z,24.3
2022-12-18T10:56:08.023Z,32.4
2022-12-18T10:58:09.209Z,35.2
2022-12-18T11:00:10.458Z,32.3
2022-12-18T11:02:11.827Z,32.6
2022-12-18T11:04:12.915Z,28.4
2022-12-18T11:06:17.540Z,41.9
2022-12-18T11:08:18.764Z,29.5
2022-12-18T11:10:20.011Z,21.8
2022-12-18T11:12:21.224Z,49
2022-12-18T11:14:22.463Z,26.5
2022-12-18T11:16:23.784Z,41.1
2022-12-18T11:24:32.040Z,31.2
2022-12-18T11:29:02.338Z,30.4
2022-12-18T11:31:03.639Z,20.5
2022-12-18T11:41:13.249Z,18.5
2022-12-18T11:43:14.495Z,17.6
2022-12-18T11:45:15.753Z,23.1
2022-12-18T11:47:20.414Z,22.1
2022-12-18T11:49:21.656Z,23.5
2022-12-18T11:51:27.143Z,17.8
2022-12-18T11:53:24.170Z,19.3
2022-12-18T11:55:25.401Z,18.7
2022-12-18T11:57:26.676Z,13
2022-12-18T11:59:27.932Z,17
2022-12-18T12:01:32.664Z,21.5
2022-12-18T12:03:33.905Z,12.7
2022-12-18T12:05:35.093Z,20.8
2022-12-18T12:07:36.366Z,17.1
2022-12-18T12:09:37.629Z,21.8
2022-12-18T12:11:38.895Z,19.7
2022-12-18T12:13:40.361Z,17.4
2022-12-18T12:15:44.815Z,27.5
2022-12-18T12:17:46.066Z,18.3
2022-12-18T12:19:47.329Z,22.1
2022-12-18T12:20:49.661Z,22.3
2022-12-18T12:22:50.908Z,38.2
2022-12-18T12:24:52.205Z,26.9
2022-12-18T12:26:53.402Z,34.2
2022-12-18T12:28:58.091Z,25.5
2022-12-18T12:30:59.338Z,10.2
2022-12-18T12:33:00.606Z,12.9
2022-12-18T12:35:06.062Z,16.1
2022-12-18T12:37:03.130Z,15.4
2022-12-18T12:39:04.405Z,19.8
2022-12-18T12:41:05.688Z,19.1
2022-12-18T12:43:10.328Z,30.8
2022-12-18T12:45:11.603Z,19.3
2022-12-18T12:47:12.855Z,25.7
2022-12-18T12:49:14.121Z,13.8
2022-12-18T12:51:15.389Z,24.4
2022-12-18T12:53:16.633Z,23
2022-12-18T12:55:17.903Z,20.7
2022-12-18T12:57:22.613Z,27.2
2022-12-18T12:59:23.889Z,14.9
2022-12-18T13:01:25.250Z,16.4
2022-12-18T13:03:26.416Z,16
2022-12-18T13:05:27.715Z,17.6
2022-12-18T13:07:28.968Z,23.9
2022-12-18T13:09:30.228Z,18.6
2022-12-18T13:11:34.926Z,26.8
2022-12-18T13:13:36.181Z,21.1
2022-12-18T13:15:39.868Z,17.7
2022-12-18T13:16:39.812Z,17.3
2022-12-18T13:18:41.442Z,14.7
2022-12-18T13:20:42.386Z,26
2022-12-18T13:26:49.660Z,18.7
2022-12-18T13:28:50.942Z,25.1
2022-12-18T13:39:00.819Z,12.4
2022-12-18T13:41:02.101Z,14.9
2022-12-18T13:45:04.711Z,13.7
2022-12-18T13:47:05.960Z,15.1
2022-12-18T13:49:07.287Z,13.1
2022-12-18T13:51:08.554Z,18.5
2022-12-18T13:53:13.267Z,15.6
2022-12-18T13:55:14.548Z,16.9
2022-12-18T13:57:17.716Z,16.2
2022-12-18T13:59:17.132Z,17.4
2022-12-18T14:01:18.509Z,18.6
2022-12-18T14:03:22.631Z,20.7
2022-12-18T14:05:21.009Z,22.6
2022-12-18T14:07:25.720Z,40.2
2022-12-18T14:09:27.025Z,21.2
2022-12-18T14:11:28.320Z,18.1
2022-12-18T14:12:30.665Z,29.2
2022-12-18T14:14:32.830Z,14.3
2022-12-18T14:16:33.367Z,20.6
2022-12-18T14:18:34.557Z,13.5
2022-12-18T14:20:39.288Z,17
2022-12-18T14:22:40.572Z,22.2
2022-12-18T14:24:41.872Z,24.9
2022-12-18T14:26:43.183Z,18.7
2022-12-18T14:28:44.487Z,17.7
2022-12-18T14:30:45.862Z,27
2022-12-18T14:32:47.074Z,21.3
2022-12-18T14:34:51.760Z,17.5
2022-12-18T14:36:53.072Z,13.6
2022-12-18T14:38:54.370Z,19
2022-12-18T14:40:55.680Z,19.1
2022-12-18T14:42:56.991Z,11.5
2022-12-18T14:45:13.419Z,19.5
2022-12-18T14:46:59.578Z,19.1
2022-12-18T14:49:04.308Z,19
2022-12-18T14:51:05.596Z,24.9
2022-12-18T14:53:06.889Z,22.9
2022-12-18T14:55:08.170Z,21.7
2022-12-18T14:57:09.491Z,18.9
2022-12-18T14:59:10.809Z,16.3
2022-12-18T15:01:12.132Z,18.1
2022-12-18T15:03:16.931Z,23.3
2022-12-18T15:05:18.104Z,15.3
2022-12-18T15:07:19.425Z,20.2
2022-12-18T15:09:42.850Z,20.9
2022-12-18T15:11:44.124Z,12.6
2022-12-18T15:13:45.390Z,15.7
2022-12-18T15:15:50.148Z,25.5
2022-12-18T15:17:51.409Z,15.4
2022-12-18T15:19:52.740Z,18.6
2022-12-18T15:21:54.014Z,22.8
2022-12-18T15:23:55.311Z,12
2022-12-18T15:25:56.602Z,16.9
2022-12-18T15:27:57.923Z,11.1
2022-12-18T15:30:02.784Z,19.5
2022-12-18T15:32:03.970Z,17.4
2022-12-18T15:34:05.261Z,12.7
2022-12-18T15:36:06.562Z,18
2022-12-18T15:38:07.851Z,23.8
2022-12-18T15:40:10.739Z,15.8
2022-12-18T15:42:11.984Z,14.4
2022-12-18T15:44:16.699Z,17.4
2022-12-18T15:46:18.123Z,14.9
2022-12-18T15:48:19.298Z,21.3
2022-12-18T15:50:20.596Z,14.2
2022-12-18T15:54:23.202Z,24.9
2022-12-18T15:58:29.218Z,20.8
2022-12-18T16:02:32.063Z,16.5
2022-12-18T16:03:34.261Z,10.9
2022-12-18T16:09:38.099Z,25.5
2022-12-18T16:11:42.818Z,19.8
2022-12-18T16:13:44.245Z,24.4
2022-12-18T16:15:45.451Z,19.3
2022-12-18T16:17:46.713Z,22.1
2022-12-18T16:19:48.015Z,21.1
2022-12-18T16:21:49.370Z,13.7
2022-12-18T16:23:50.650Z,16.7
2022-12-18T16:25:55.387Z,21.5
2022-12-18T16:27:56.669Z,20.9
2022-12-18T16:29:58.108Z,23.2
2022-12-18T16:31:59.287Z,21.3
2022-12-18T16:34:00.608Z,16.4
2022-12-18T16:36:01.914Z,21
2022-12-18T16:40:07.957Z,14.8
2022-12-18T16:42:09.254Z,11.6
2022-12-18T16:44:10.535Z,23.3
2022-12-18T16:46:11.887Z,21.5
2022-12-18T16:48:13.147Z,12.2
2022-12-18T16:50:14.443Z,23.5
2022-12-18T16:54:20.498Z,22.8
2022-12-18T16:56:21.767Z,31.4
2022-12-18T16:58:23.077Z,35.8
2022-12-18T16:59:25.453Z,37.3
2022-12-18T17:01:26.867Z,23.2
2022-12-18T17:03:28.104Z,25.4
2022-12-18T17:05:29.360Z,16.7
2022-12-18T17:07:34.094Z,18.8
2022-12-18T17:09:35.439Z,29.8
2022-12-18T17:11:36.732Z,20.8
2022-12-18T17:13:38.222Z,21.5
2022-12-18T17:15:39.402Z,26.2
2022-12-18T17:17:40.642Z,21.5
2022-12-18T17:19:41.963Z,21.6
2022-12-18T17:21:46.676Z,16.7
2022-12-18T17:23:47.984Z,16.9
2022-12-18T17:25:49.286Z,13.5
2022-12-18T17:27:50.608Z,27.4
2022-12-18T17:29:51.935Z,14
2022-12-18T17:31:53.243Z,19.7
2022-12-18T17:33:54.554Z,11.4
2022-12-18T17:35:59.287Z,28
2022-12-18T17:38:00.600Z,11
2022-12-18T17:42:03.249Z,18.5
2022-12-18T17:44:04.565Z,29.7
2022-12-18T17:46:05.916Z,18
2022-12-18T17:48:07.194Z,17.3
2022-12-18T17:50:11.934Z,11.7
2022-12-18T17:52:13.240Z,13.7
2022-12-18T17:54:14.551Z,8
2022-12-18T17:57:18.247Z,8.5
2022-12-18T17:59:19.561Z,21.9
2022-12-18T18:01:21.048Z,22.2
2022-12-18T18:03:25.952Z,13.1
2022-12-18T18:07:28.239Z,18.7
2022-12-18T18:09:29.547Z,28.4
2022-12-18T18:11:30.839Z,13.4
2022-12-18T18:13:38.759Z,49.2
2022-12-18T18:17:38.225Z,20.4
2022-12-18T18:19:39.546Z,20.3
2022-12-18T18:21:40.829Z,7.9
2022-12-18T18:23:42.479Z,13.8
2022-12-18T18:25:43.477Z,30.8
2022-12-18T18:27:44.785Z,9.4
2022-12-18T18:29:46.114Z,22.1
2022-12-18T18:31:50.901Z,27.7
2022-12-18T18:33:52.131Z,17.9
2022-12-18T18:35:54.578Z,15.5
2022-12-18T18:41:57.427Z,25
2022-12-18T18:43:58.701Z,11.1
2022-12-18T18:46:03.570Z,29.6
2022-12-18T18:48:04.817Z,21.6
2022-12-18T18:50:06.084Z,21.7
2022-12-18T18:54:30.870Z,14.8
2022-12-18T18:56:56.190Z,12.5
2022-12-18T18:58:36.916Z,19.5
2022-12-18T19:00:38.244Z,17.1
2022-12-18T19:02:39.686Z,27.1
2022-12-18T19:04:45.034Z,23.3
2022-12-18T19:06:42.149Z,10.3
2022-12-18T19:08:44.003Z,24.8
2022-12-18T19:10:44.772Z,15.8
2022-12-18T19:12:49.476Z,19.7
2022-12-18T19:14:50.807Z,21.4
2022-12-18T19:16:52.140Z,40.2
2022-12-18T19:18:57.171Z,20.2
2022-12-18T19:20:54.692Z,21.7
2022-12-18T19:22:56.188Z,34.9
2022-12-18T19:27:02.018Z,19.3
2022-12-18T19:29:03.341Z,17.1
2022-12-18T19:31:04.633Z,20.8
2022-12-18T19:33:26.800Z,16.9
2022-12-18T19:35:07.261Z,27.6
2022-12-18T19:37:08.580Z,16.7
2022-12-18T19:39:09.891Z,30.5
2022-12-18T19:41:14.786Z,23.9
2022-12-18T19:43:15.928Z,8.7
2022-12-18T19:46:19.669Z,19.6
2022-12-18T19:48:20.914Z,22.6
2022-12-18T19:52:23.551Z,11.2
2022-12-18T19:54:28.263Z,24.9
2022-12-18T19:56:29.586Z,18.1
2022-12-18T19:58:30.904Z,36.9
2022-12-18T20:00:32.239Z,21.4
2022-12-18T20:02:33.691Z,28.5
2022-12-18T20:04:34.854Z,14.8
2022-12-18T20:06:36.187Z,21.1
2022-12-18T20:08:40.935Z,18.3
2022-12-18T20:10:42.277Z,27.9
2022-12-18T20:12:43.580Z,29.9
2022-12-18T20:14:44.903Z,29.3
2022-12-18T20:16:46.249Z,21.8
2022-12-18T20:18:47.550Z,37.6
2022-12-18T20:20:48.859Z,10.2
2022-12-18T20:22:53.592Z,25.3
2022-12-18T20:24:54.921Z,14.9
2022-12-18T20:26:56.203Z,30
2022-12-18T20:30:58.872Z,10
2022-12-18T20:33:00.169Z,28.1
2022-12-18T20:35:01.506Z,16.9
2022-12-18T20:39:07.721Z,23
2022-12-18T20:41:08.835Z,45.2
2022-12-18T20:42:11.194Z,27.4
2022-12-18T20:44:23.112Z,15.6
2022-12-18T20:50:19.912Z,20.8
2022-12-18T20:52:21.209Z,28.9
2022-12-18T20:54:22.524Z,12.1
2022-12-18T20:58:25.175Z,12.9
2022-12-18T21:02:28.107Z,32.8
2022-12-18T21:08:35.174Z,16
2022-12-18T21:10:36.482Z,12.3
2022-12-18T21:12:42.752Z,38.5
2022-12-18T21:14:39.107Z,26
2022-12-18T21:16:40.526Z,27.8
2022-12-18T21:18:45.145Z,28.4
2022-12-18T21:20:46.478Z,18.5
2022-12-18T21:22:47.771Z,22.3
2022-12-18T21:26:50.414Z,22.5
2022-12-18T21:28:51.701Z,17.9
2022-12-18T21:32:59.267Z,24.2
2022-12-18T21:38:04.247Z,37.4
2022-12-18T21:40:05.567Z,44.9
2022-12-18T21:42:06.842Z,41.5
2022-12-18T21:44:08.180Z,12.5
2022-12-18T21:46:12.991Z,55
2022-12-18T21:48:14.188Z,39.8
2022-12-18T21:50:15.518Z,16.8
2022-12-18T21:52:16.854Z,35.3
2022-12-18T21:54:18.154Z,39
2022-12-18T21:56:19.460Z,19.7
2022-12-18T21:58:20.774Z,14.1
2022-12-18T22:00:25.495Z,20.5
2022-12-18T22:02:26.954Z,20.5
2022-12-18T22:04:28.106Z,29.8
2022-12-18T22:06:29.438Z,44.7
2022-12-18T22:08:30.707Z,21.1
2022-12-18T22:10:32.014Z,31.8
2022-12-18T22:12:33.332Z,29.4
2022-12-18T22:14:38.112Z,37.8
2022-12-18T22:16:39.375Z,51.6
2022-12-18T22:18:40.685Z,30.7
2022-12-18T22:20:41.990Z,27.4
2022-12-18T22:22:43.309Z,22.5
2022-12-18T22:24:44.628Z,23.6
2022-12-18T22:26:45.923Z,59.8
2022-12-18T22:28:50.640Z,27.4
2022-12-18T22:35:16.350Z,34
2022-12-18T22:41:23.680Z,18.6
2022-12-18T22:43:24.992Z,21.3
2022-12-18T22:45:26.288Z,32.4
2022-12-18T22:47:30.025Z,52
2022-12-18T22:49:28.930Z,57.8
2022-12-18T22:51:30.235Z,29
2022-12-18T22:53:31.559Z,26.6
2022-12-18T22:55:36.264Z,47.8
2022-12-18T22:57:37.570Z,55.3
2022-12-18T22:59:38.899Z,39
2022-12-18T23:01:40.382Z,35.8
2022-12-18T23:03:41.588Z,31.9
2022-12-18T23:05:42.844Z,31.3
2022-12-18T23:07:44.170Z,42.3
2022-12-18T23:11:50.241Z,61.7
2022-12-18T23:13:51.506Z,30.1
2022-12-18T23:15:52.921Z,37.2
2022-12-18T23:17:54.152Z,79.2
2022-12-18T23:19:55.478Z,47.3
2022-12-18T23:21:56.805Z,45.5
2022-12-18T23:29:06.535Z,66
2022-12-18T23:31:07.879Z,66.5
2022-12-18T23:33:09.163Z,30.2
2022-12-18T23:35:10.481Z,46.1
2022-12-18T23:37:35.375Z,43
2022-12-18T23:39:28.863Z,41.8
2022-12-18T23:45:20.425Z,72.2
2022-12-18T23:47:21.753Z,44.2
2022-12-18T23:49:23.049Z,57.9
2022-12-18T23:51:27.790Z,52.6
2022-12-18T23:53:29.079Z,56.8
2022-12-18T23:55:30.400Z,56.8
2022-12-18T23:57:31.715Z,26.4
